Tucuman, Argentina
Current Conditions -  °F | °C
As of 5:00 PM on Saturday 20 Dec 2014 (Local Time) from SANT Reporting Station
Scattered Clouds Scattered Clouds  
Wind Chill: 90°   Ceiling: Unl
Heat Index: 100°   Visibility: 6mi
Dew Point: 75°   Wind: 10mph
Humidity: 62%   Direction: 180°S
Pressure: 29.35"   Gusts: NA
Location:  26.85°S, 65.14°W
Report Text: SANT 202000Z 18009KT 9999 SCT035 FEW050CBFEW200 32/24 Q0994
Loading
Personal Weather Stations






























Interactive Weather Map New forecast layout! Learn more

10-Day Weather Forecast

Advertisements
Track Severe Weather on mobile